Time;durP1;ratioP1;P1;durP2;ratioP2;P2;SDS_P1;SDS_P2;PMS_P1;PMS_P2;Temp;Humidity;BMP_temperature;BMP_pressure;BME280_temperature;BME280_humidity;BME280_pressure;Samples;Min_cycle;Max_cycle;Signal;HPM_P1;HPM_P2
2023/02/24 00:00:54;;;;;;;21.95;2.40;;;;;;;2.74;100.00;98727.47;4967633;28;20118;-86
2023/02/24 00:03:04;;;;;;;14.73;2.60;;;;;;;2.72;100.00;98776.03;4978376;28;20057;-86
2023/02/24 00:05:32;;;;;;;12.50;2.35;;;;;;;2.72;100.00;98800.56;4985673;28;20062;-86
2023/02/24 00:07:58;;;;;;;13.70;2.72;;;;;;;2.80;100.00;98835.84;4977564;28;20048;-84
2023/02/24 00:10:23;;;;;;;11.67;1.90;;;;;;;2.78;100.00;98875.53;5000900;28;20842;-85
2023/02/24 00:12:48;;;;;;;11.30;1.33;;;;;;;2.78;100.00;98904.50;4992036;28;20311;-84
2023/02/24 00:15:14;;;;;;;10.87;1.57;;;;;;;2.80;100.00;98928.09;4991169;28;20034;-83
2023/02/24 00:17:42;;;;;;;10.55;1.83;;;;;;;2.78;100.00;98988.84;4976342;28;20526;-85
2023/02/24 00:20:11;;;;;;;8.45;2.00;;;;;;;2.79;100.00;99051.13;4992439;28;20038;-85
2023/02/24 00:22:37;;;;;;;16.58;2.15;;;;;;;2.82;100.00;99158.06;4990448;28;20034;-84
2023/02/24 00:25:03;;;;;;;9.77;1.77;;;;;;;2.74;100.00;99228.19;4986079;28;20025;-86
2023/02/24 00:27:29;;;;;;;13.65;2.53;;;;;;;2.80;100.00;99303.19;4992533;28;20034;-83
2023/02/24 00:29:55;;;;;;;;;;;;;;;2.70;100.00;99381.47;4978906;28;20041;-86
2023/02/24 00:32:20;;;;;;;9.55;1.70;;;;;;;2.72;100.00;99506.03;5009533;28;20298;-84
2023/02/24 00:34:47;;;;;;;9.97;2.60;;;;;;;2.69;100.00;99541.41;4991339;28;20093;-86
2023/02/24 00:37:14;;;;;;;16.85;2.40;;;;;;;2.69;100.00;99598.53;4975609;28;20076;-86
2023/02/24 00:39:40;;;;;;;7.88;2.30;;;;;;;2.71;100.00;99670.41;4991146;28;20049;-85
2023/02/24 00:42:06;;;;;;;17.63;2.20;;;;;;;2.75;100.00;99675.25;5001584;28;20038;-86
2023/02/24 00:44:34;;;;;;;10.15;1.85;;;;;;;2.76;100.00;99670.81;4998209;28;20113;-84
2023/02/24 00:47:01;;;;;;;10.88;1.98;;;;;;;2.77;100.00;99714.66;5007219;28;20049;-85
2023/02/24 00:49:28;;;;;;;12.82;2.83;;;;;;;2.77;100.00;99748.94;4992053;28;20585;-86
2023/02/24 00:51:54;;;;;;;7.63;2.05;;;;;;;2.75;100.00;99782.50;5008198;28;20581;-85
2023/02/24 00:54:23;;;;;;;8.88;1.40;;;;;;;2.71;100.00;99800.38;4991391;28;20041;-86
2023/02/24 00:56:49;;;;;;;5.03;1.30;;;;;;;2.71;100.00;99825.91;5007796;28;20096;-84
2023/02/24 00:59:17;;;;;;;13.00;1.77;;;;;;;2.78;100.00;99850.75;4991804;28;20029;-85
2023/02/24 01:01:48;;;;;;;7.78;1.67;;;;;;;2.73;100.00;99818.69;4991348;28;20273;-86
2023/02/24 01:04:14;;;;;;;12.98;2.83;;;;;;;2.69;100.00;99799.69;4976336;28;20033;-82
2023/02/24 01:06:45;;;;;;;9.05;2.85;;;;;;;2.74;100.00;99815.13;4975597;28;20469;-85
2023/02/24 01:09:14;;;;;;;8.48;1.60;;;;;;;2.77;100.00;99829.81;5008311;28;20046;-86
2023/02/24 01:12:37;;;;;;;11.80;1.30;;;;;;;2.74;100.00;99839.66;4990324;28;20034;-84
2023/02/24 01:14:48;;;;;;;9.00;2.25;;;;;;;2.71;100.00;99865.44;4992633;28;20123;-84
2023/02/24 01:17:15;;;;;;;8.57;2.40;;;;;;;2.72;100.00;99904.84;4971983;28;20014;-85
2023/02/24 01:19:43;;;;;;;6.90;1.25;;;;;;;2.75;100.00;99911.66;4982028;28;20053;-85
2023/02/24 01:22:10;;;;;;;8.80;1.27;;;;;;;2.71;100.00;99891.78;4992285;28;20033;-85
2023/02/24 01:24:38;;;;;;;6.97;1.55;;;;;;;2.76;100.00;99879.03;5008183;28;20038;-86
2023/02/24 01:27:06;;;;;;;10.63;2.42;;;;;;;2.71;100.00;99844.34;4995837;28;20084;-86
2023/02/24 01:29:38;;;;;;;14.30;2.67;;;;;;;2.75;100.00;99851.03;4975667;28;20986;-84
2023/02/24 01:32:11;;;;;;;16.60;2.80;;;;;;;2.73;100.00;99816.06;4991627;28;20029;-86
2023/02/24 01:34:41;;;;;;;12.63;2.00;;;;;;;2.74;100.00;99801.94;4994587;28;20030;-85
2023/02/24 01:37:06;;;;;;;16.38;1.52;;;;;;;2.71;100.00;99781.91;5008426;28;20027;-85
2023/02/24 01:39:32;;;;;;;5.38;1.20;;;;;;;2.75;100.00;99783.31;4991887;28;20057;-85
2023/02/24 01:42:00;;;;;;;6.83;1.57;;;;;;;2.67;100.00;99782.31;4995105;28;20022;-86
2023/02/24 01:44:31;;;;;;;10.05;1.67;;;;;;;2.67;100.00;99801.63;4978604;28;20034;-85
2023/02/24 01:47:02;;;;;;;8.60;2.08;;;;;;;2.71;100.00;99818.00;4996173;28;20026;-86
2023/02/24 01:49:32;;;;;;;9.20;1.88;;;;;;;2.68;100.00;99791.91;4981072;28;20038;-85
2023/02/24 01:52:04;;;;;;;10.73;1.77;;;;;;;2.69;100.00;99815.50;4987388;28;20560;-85
2023/02/24 01:54:44;;;;;;;7.07;1.35;;;;;;;2.67;100.00;99809.53;4985412;28;20034;-85
2023/02/24 01:57:16;;;;;;;5.75;1.27;;;;;;;2.69;100.00;99801.47;5005290;28;20274;-86
2023/02/24 01:59:45;;;;;;;11.70;3.03;;;;;;;2.68;100.00;99770.84;4993512;28;20097;-85
2023/02/24 02:02:11;;;;;;;11.90;1.45;;;;;;;2.62;100.00;99766.94;5017859;28;20033;-86
2023/02/24 02:04:44;;;;;;;6.85;1.73;;;;;;;2.62;100.00;99755.56;4979526;28;20513;-85
2023/02/24 02:07:15;;;;;;;5.70;1.02;;;;;;;2.59;100.00;99738.22;4991401;28;20038;-84
2023/02/24 02:09:42;;;;;;;5.93;1.40;;;;;;;2.59;100.00;99697.84;4986282;28;20070;-86
2023/02/24 02:12:08;;;;;;;10.13;2.42;;;;;;;2.63;100.00;99715.06;4994885;28;20026;-85
2023/02/24 02:14:37;;;;;;;9.75;2.13;;;;;;;2.59;100.00;99687.31;4992060;28;20038;-84
2023/02/24 02:17:22;;;;;;;11.30;1.40;;;;;;;2.61;100.00;99704.66;5001258;28;20030;-86
2023/02/24 02:19:56;;;;;;;8.75;2.30;;;;;;;2.59;100.00;99689.94;5006950;28;20039;-86
2023/02/24 02:22:25;;;;;;;5.72;1.23;;;;;;;2.65;100.00;99719.22;5015603;28;20042;-86
2023/02/24 02:25:08;;;;;;;4.57;0.90;;;;;;;2.56;100.00;99692.88;5009225;28;20030;-83
2023/02/24 02:28:04;;;;;;;9.85;1.92;;;;;;;2.52;100.00;99727.38;4990273;28;20112;-83
2023/02/24 02:31:11;;;;;;;10.05;1.35;;;;;;;2.46;100.00;99719.22;4992423;28;20042;-85
2023/02/24 02:33:42;;;;;;;12.48;1.38;;;;;;;2.48;100.00;99733.91;5009238;28;20034;-85
2023/02/24 02:36:30;;;;;;;8.18;1.90;;;;;;;2.53;100.00;99725.59;5018904;28;20028;-84
2023/02/24 02:39:17;;;;;;;6.50;1.27;;;;;;;2.57;100.00;99739.31;4993451;28;20121;-86
2023/02/24 02:42:15;;;;;;;14.05;2.03;;;;;;;2.49;100.00;99724.19;4997596;28;20030;-86
2023/02/24 02:44:56;;;;;;;8.18;2.20;;;;;;;2.50;100.00;99737.22;4914661;29;20113;-85
2023/02/24 02:48:03;;;;;;;12.10;1.15;;;;;;;2.53;100.00;99707.97;4899058;29;20036;-86
2023/02/24 02:50:48;;;;;;;14.30;2.78;;;;;;;2.45;100.00;99681.47;4893387;29;20124;-85
2023/02/24 02:53:36;;;;;;;7.50;1.67;;;;;;;2.49;100.00;99672.31;4881937;29;20040;-82
2023/02/24 02:56:10;;;;;;;23.50;2.92;;;;;;;2.49;100.00;99645.97;4899898;29;20151;-86
2023/02/24 02:58:40;;;;;;;5.15;0.73;;;;;;;2.53;100.00;99642.09;4884062;29;20036;-87
2023/02/24 03:01:09;;;;;;;6.75;1.63;;;;;;;2.49;100.00;99617.00;4884383;29;20044;-88
2023/02/24 03:03:41;;;;;;;13.35;1.25;;;;;;;2.53;100.00;99607.84;4902677;29;20038;-85
2023/02/24 03:06:25;;;;;;;8.35;1.30;;;;;;;2.61;100.00;99593.97;4911682;29;20581;-85
2023/02/24 03:08:58;;;;;;;8.88;1.35;;;;;;;2.48;100.00;99564.44;4898318;29;20063;-86
2023/02/24 03:11:25;;;;;;;12.05;1.88;;;;;;;2.48;100.00;99591.63;4897485;29;20945;-82
2023/02/24 03:13:54;;;;;;;12.70;1.98;;;;;;;2.47;100.00;99600.50;4905454;29;20028;-84
2023/02/24 03:16:23;;;;;;;8.68;2.17;;;;;;;2.51;100.00;99596.63;4897398;29;20082;-85
2023/02/24 03:18:58;;;;;;;10.60;1.23;;;;;;;2.61;100.00;99587.88;4881903;29;20777;-82
2023/02/24 03:21:28;;;;;;;8.70;2.75;;;;;;;2.64;100.00;99574.41;4924511;28;20046;-84
2023/02/24 03:23:54;;;;;;;19.05;3.50;;;;;;;2.60;100.00;99557.22;5008243;28;20034;-82
2023/02/24 03:26:36;;;;;;;8.73;2.05;;;;;;;2.63;100.00;99570.13;4994696;28;20021;-85
2023/02/24 03:29:47;;;;;;;8.48;1.63;;;;;;;2.58;100.00;99549.47;5011074;28;20137;-85
2023/02/24 03:32:31;;;;;;;6.80;1.65;;;;;;;2.54;100.00;99556.81;4967706;28;20149;-87
2023/02/24 03:35:26;;;;;;;11.32;1.63;;;;;;;2.61;100.00;99569.44;4992980;28;20375;-85
2023/02/24 03:37:56;;;;;;;9.55;1.92;;;;;;;2.54;100.00;99575.25;4993758;28;20122;-86
2023/02/24 03:40:28;;;;;;;6.35;1.13;;;;;;;2.50;100.00;99589.66;4989864;28;20084;-84
2023/02/24 03:43:04;;;;;;;7.70;1.88;;;;;;;2.53;100.00;99607.84;5015150;23;20523;-73
2023/02/24 03:45:34;;;;;;;11.05;1.58;;;;;;;2.48;100.00;99614.50;4974480;28;20030;-73
2023/02/24 03:48:02;;;;;;;7.25;1.88;;;;;;;2.52;100.00;99636.97;4967494;28;20428;-73
2023/02/24 03:50:31;;;;;;;8.70;1.65;;;;;;;2.48;100.00;99644.31;4968562;28;20425;-73
2023/02/24 03:53:06;;;;;;;10.18;1.13;;;;;;;2.49;100.00;99651.25;4967979;28;20518;-73
2023/02/24 03:55:47;;;;;;;5.93;0.80;;;;;;;2.51;100.00;99657.22;4995780;23;20042;-77
2023/02/24 03:58:30;;;;;;;6.18;1.23;;;;;;;2.51;100.00;99665.13;4975904;28;20493;-77
2023/02/24 04:01:20;;;;;;;11.00;1.20;;;;;;;2.51;100.00;99666.94;5007644;28;20091;-78
2023/02/24 04:04:11;;;;;;;5.05;1.73;;;;;;;2.53;100.00;99665.81;4984932;28;20034;-77
2023/02/24 04:07:11;;;;;;;6.38;1.00;;;;;;;2.49;100.00;99658.31;4953670;28;20065;-77
2023/02/24 04:10:04;;;;;;;8.98;1.95;;;;;;;2.48;100.00;99664.56;4969079;28;20054;-78
2023/02/24 04:12:45;;;;;;;8.77;1.38;;;;;;;2.47;100.00;99663.72;4985381;28;20108;-76
2023/02/24 04:15:23;;;;;;;8.48;1.48;;;;;;;2.51;100.00;99686.19;4986435;28;20325;-77
2023/02/24 04:18:01;;;;;;;7.47;1.35;;;;;;;2.56;100.00;99685.78;4973426;28;20077;-76
2023/02/24 04:20:35;;;;;;;7.40;1.40;;;;;;;2.56;100.00;99693.69;4985513;28;20041;-78
2023/02/24 04:23:10;;;;;;;10.93;2.47;;;;;;;2.44;100.00;99681.63;4986186;28;20026;-77
2023/02/24 04:25:39;;;;;;;9.18;1.50;;;;;;;2.45;100.00;99692.00;4979149;28;20105;-78
2023/02/24 04:28:08;;;;;;;8.82;1.30;;;;;;;2.42;100.00;99704.63;4987347;28;20065;-77
2023/02/24 04:30:40;;;;;;;8.27;1.35;;;;;;;2.38;100.00;99717.22;4985939;28;20026;-76
2023/02/24 04:33:06;;;;;;;5.57;1.40;;;;;;;2.41;100.00;99740.69;4986909;28;20026;-76
2023/02/24 04:35:32;;;;;;;7.95;1.52;;;;;;;2.43;100.00;99749.25;4961729;28;20501;-78
2023/02/24 04:37:58;;;;;;;13.90;1.88;;;;;;;2.48;100.00;99776.06;4987635;28;20022;-77
2023/02/24 04:40:25;;;;;;;10.02;2.60;;;;;;;2.48;100.00;99759.41;4987561;28;20038;-77
2023/02/24 04:42:52;;;;;;;9.75;3.05;;;;;;;2.41;100.00;99748.59;4985282;28;20043;-77
2023/02/24 04:45:22;;;;;;;8.35;2.35;;;;;;;2.45;100.00;99751.78;4985017;28;20034;-78
2023/02/24 04:47:50;;;;;;;11.00;2.25;;;;;;;2.41;100.00;99753.84;4982925;28;20102;-77
2023/02/24 04:50:22;;;;;;;10.10;2.47;;;;;;;2.40;100.00;99752.19;4971105;28;20034;-77
2023/02/24 04:52:56;;;;;;;8.52;2.75;;;;;;;2.42;100.00;99760.78;4987810;28;20149;-78
2023/02/24 04:55:25;;;;;;;7.68;3.15;;;;;;;2.34;100.00;99752.69;4970660;28;20034;-77
2023/02/24 04:57:57;;;;;;;12.65;3.55;;;;;;;2.31;100.00;99763.50;4980856;28;20065;-78
2023/02/24 05:00:25;;;;;;;12.48;2.15;;;;;;;2.30;100.00;99770.59;4985891;28;20254;-78
2023/02/24 05:02:52;;;;;;;19.13;2.17;;;;;;;2.31;100.00;99755.59;4982682;28;20023;-78
2023/02/24 05:05:26;;;;;;;8.77;1.83;;;;;;;2.32;100.00;99749.41;4971508;28;20065;-77
2023/02/24 05:08:01;;;;;;;9.55;2.03;;;;;;;2.38;100.00;99756.75;4973634;28;20347;-78
2023/02/24 05:10:28;;;;;;;13.98;2.10;;;;;;;2.39;100.00;99750.53;4969903;28;20042;-78
2023/02/24 05:12:57;;;;;;;11.70;2.72;;;;;;;2.39;100.00;99765.47;4988319;28;20437;-75
2023/02/24 05:15:29;;;;;;;9.98;2.70;;;;;;;2.36;100.00;99763.94;4990383;28;20022;-76
2023/02/24 05:18:12;;;;;;;12.50;2.47;;;;;;;2.34;100.00;99773.78;4989158;28;20407;-78
2023/02/24 05:23:33;;;;;;;12.70;2.15;;;;;;;2.30;100.00;99782.94;4988185;28;20049;-74
2023/02/24 05:26:00;;;;;;;10.20;2.10;;;;;;;2.27;100.00;99789.31;4989038;28;20034;-77
2023/02/24 05:28:30;;;;;;;5.60;2.50;;;;;;;2.21;100.00;99783.72;4992723;28;20483;-79
2023/02/24 05:31:07;;;;;;;8.68;2.63;;;;;;;2.25;100.00;99790.41;4978297;28;20398;-78
2023/02/24 05:33:34;;;;;;;16.77;3.42;;;;;;;2.30;100.00;99804.00;4988203;28;20026;-79
2023/02/24 05:36:03;;;;;;;15.32;3.60;;;;;;;2.18;100.00;99784.81;4991200;28;20557;-78
2023/02/24 05:38:29;;;;;;;13.80;2.92;;;;;;;2.08;100.00;99763.72;4989914;28;20034;-75
2023/02/24 05:41:03;;;;;;;;;;;;;;;2.16;100.00;99794.66;4990056;28;20539;-79
2023/02/24 05:43:30;;;;;;;10.85;2.85;;;;;;;2.19;100.00;99791.75;4971421;28;20196;-76
2023/02/24 05:45:59;;;;;;;7.20;1.80;;;;;;;2.04;100.00;99788.63;4976926;28;20038;-76
2023/02/24 05:48:27;;;;;;;10.48;2.45;;;;;;;2.04;100.00;99780.75;4971228;28;20038;-78
2023/02/24 05:50:53;;;;;;;12.90;2.30;;;;;;;2.04;100.00;99777.28;4985794;28;20031;-78
2023/02/24 05:53:22;;;;;;;8.52;2.75;;;;;;;2.03;100.00;99786.94;4975323;28;20601;-78
2023/02/24 05:55:48;;;;;;;15.85;2.55;;;;;;;1.98;100.00;99783.88;4977835;28;20030;-79
2023/02/24 05:58:14;;;;;;;8.23;2.83;;;;;;;1.84;100.00;99763.16;4991922;28;20748;-75
2023/02/24 06:00:44;;;;;;;11.98;3.33;;;;;;;1.92;100.00;99773.91;4991671;28;20702;-78
2023/02/24 06:03:15;;;;;;;14.30;2.92;;;;;;;1.94;100.00;99777.22;4991777;28;20048;-77
2023/02/24 06:05:42;;;;;;;10.52;2.05;;;;;;;1.87;100.00;99749.75;4974961;28;20041;-77
2023/02/24 06:08:10;;;;;;;12.68;2.92;;;;;;;1.87;100.00;99766.38;4991784;28;20061;-77
2023/02/24 06:10:39;;;;;;;4.93;2.78;;;;;;;1.83;100.00;99753.63;4978562;28;20125;-79
2023/02/24 06:13:05;;;;;;;6.90;2.38;;;;;;;1.76;100.00;99752.47;4992124;28;20479;-77
2023/02/24 06:15:31;;;;;;;7.15;2.78;;;;;;;1.65;100.00;99745.47;4991096;28;20157;-76
2023/02/24 06:17:59;;;;;;;9.32;3.53;;;;;;;1.59;100.00;99728.44;4991916;28;20127;-77
2023/02/24 06:20:26;;;;;;;5.38;3.17;;;;;;;1.61;100.00;99737.00;4974314;28;20081;-77
2023/02/24 06:23:00;;;;;;;9.77;3.15;;;;;;;1.65;100.00;99746.31;4989950;28;20038;-77
2023/02/24 06:25:28;;;;;;;8.88;3.65;;;;;;;1.68;100.00;99742.56;4987405;28;20034;-78
2023/02/24 06:27:54;;;;;;;6.05;2.85;;;;;;;1.68;100.00;99734.69;4988089;28;20030;-76
2023/02/24 06:30:25;;;;;;;11.63;3.58;;;;;;;1.66;100.00;99724.31;4986508;28;20039;-77
2023/02/24 06:32:51;;;;;;;7.63;2.38;;;;;;;1.58;100.00;99708.31;4973521;28;20070;-77
2023/02/24 06:35:18;;;;;;;11.00;2.53;;;;;;;1.59;100.00;99714.41;4970272;28;20068;-77
2023/02/24 06:37:43;;;;;;;4.55;2.63;;;;;;;1.59;100.00;99720.53;4971588;28;20598;-76
2023/02/24 06:40:14;;;;;;;9.35;3.92;;;;;;;1.61;100.00;99718.56;4984389;28;20150;-76
2023/02/24 06:42:52;;;;;;;4.95;3.28;;;;;;;1.62;100.00;99717.63;4968292;28;20133;-76
2023/02/24 06:45:19;;;;;;;6.85;2.95;;;;;;;1.67;100.00;99717.25;4983470;28;20168;-77
2023/02/24 06:47:47;;;;;;;9.02;3.47;;;;;;;1.62;100.00;99709.75;4984536;28;20023;-77
2023/02/24 06:50:14;;;;;;;11.85;3.35;;;;;;;1.55;100.00;99690.19;4986168;28;20116;-76
2023/02/24 06:52:42;;;;;;;7.57;3.42;;;;;;;1.54;100.00;99696.38;4975137;28;20070;-77
2023/02/24 06:55:26;;;;;;;10.65;4.35;;;;;;;1.61;100.00;99700.16;4981856;28;20050;-77
2023/02/24 06:58:02;;;;;;;9.07;3.53;;;;;;;1.65;100.00;99703.38;4971775;28;20113;-77
2023/02/24 07:00:35;;;;;;;;;;;;;;;1.65;100.00;99693.69;4966492;28;20038;-76
2023/02/24 07:03:16;;;;;;;17.42;4.50;;;;;;;1.74;100.00;99691.25;4982850;28;19986;-77
2023/02/24 07:05:49;;;;;;;8.23;3.10;;;;;;;1.68;100.00;99684.69;4984473;28;20078;-76
2023/02/24 07:08:21;;;;;;;6.85;3.60;;;;;;;1.59;100.00;99659.16;4988231;28;20085;-76
2023/02/24 07:10:52;;;;;;;8.48;3.60;;;;;;;1.59;100.00;99660.03;4968028;28;20544;-76
2023/02/24 07:13:18;;;;;;;10.57;3.10;;;;;;;1.62;100.00;99661.56;4987515;28;20574;-75
2023/02/24 07:15:47;;;;;;;9.38;3.05;;;;;;;1.61;100.00;99660.69;4951664;28;20125;-76
2023/02/24 07:18:14;;;;;;;14.40;3.80;;;;;;;1.64;100.00;99655.19;4984078;28;20034;-76
2023/02/24 07:20:42;;;;;;;12.25;3.67;;;;;;;1.54;100.00;99638.50;4969360;28;20053;-77
2023/02/24 07:23:08;;;;;;;10.57;3.20;;;;;;;1.59;100.00;99633.72;4969573;28;20062;-77
2023/02/24 07:25:34;;;;;;;12.18;3.40;;;;;;;1.68;100.00;99634.69;4972191;28;20038;-77
2023/02/24 07:28:00;;;;;;;25.67;4.32;;;;;;;1.66;100.00;99641.88;4986217;28;20692;-76
2023/02/24 07:30:31;;;;;;;10.35;3.28;;;;;;;1.66;100.00;99634.00;4972897;28;20077;-77
2023/02/24 07:32:58;;;;;;;11.05;3.47;;;;;;;1.70;100.00;99632.78;4985657;28;20034;-77
2023/02/24 07:35:24;;;;;;;14.95;3.35;;;;;;;1.72;100.00;99620.31;4965550;28;20092;-77
2023/02/24 07:37:49;;;;;;;9.88;4.68;;;;;;;1.57;100.00;99598.81;4983136;28;20042;-76
2023/02/24 07:40:16;;;;;;;7.03;3.47;;;;;;;1.62;100.00;99609.75;4988901;28;20070;-77
2023/02/24 07:42:46;;;;;;;10.63;3.20;;;;;;;1.69;100.00;99610.06;4982680;28;20049;-77
2023/02/24 07:45:12;;;;;;;7.20;2.42;;;;;;;1.68;100.00;99606.56;4974958;28;20041;-76
2023/02/24 07:47:39;;;;;;;7.90;2.80;;;;;;;1.70;100.00;99606.44;4986871;28;20034;-76
2023/02/24 07:50:12;;;;;;;7.90;2.97;;;;;;;1.71;100.00;99599.38;4970143;28;20046;-78
2023/02/24 07:52:37;;;;;;;6.55;2.85;;;;;;;1.65;100.00;99579.72;4969476;28;20033;-76
2023/02/24 07:55:03;;;;;;;6.40;2.47;;;;;;;1.65;100.00;99567.38;4985965;28;20096;-76
2023/02/24 07:57:32;;;;;;;12.60;3.67;;;;;;;1.78;100.00;99579.47;4970366;28;20038;-76
2023/02/24 07:59:58;;;;;;;7.55;3.40;;;;;;;1.78;100.00;99577.69;4986253;28;20112;-76
2023/02/24 08:02:25;;;;;;;9.38;2.90;;;;;;;1.74;100.00;99570.19;4977525;28;20045;-76
2023/02/24 08:04:51;;;;;;;6.00;3.20;;;;;;;1.72;100.00;99551.91;4977986;28;20030;-76
2023/02/24 08:07:22;;;;;;;9.93;2.65;;;;;;;1.79;100.00;99562.72;4986095;28;20030;-76
2023/02/24 08:12:33;;;;;;;4.63;2.78;;;;;;;1.74;100.00;99546.50;4982153;28;20097;-76
2023/02/24 08:15:07;;;;;;;6.47;4.57;;;;;;;1.73;100.00;99529.03;4985954;28;20042;-76
2023/02/24 08:17:33;;;;;;;5.43;2.45;;;;;;;1.67;100.00;99531.25;4969839;28;20034;-76
2023/02/24 08:22:50;;;;;;;4.30;2.20;;;;;;;1.58;100.00;99513.63;4974204;28;20086;-75
2023/02/24 08:25:17;;;;;;;4.18;2.42;;;;;;;1.69;100.00;99521.44;4985664;28;20042;-76
2023/02/24 08:27:44;;;;;;;4.80;2.35;;;;;;;1.67;100.00;99506.75;4983529;28;20038;-75
2023/02/24 08:30:22;;;;;;;4.22;2.05;;;;;;;1.59;100.00;99496.91;4985654;28;20069;-76
2023/02/24 08:32:55;;;;;;;5.65;2.22;;;;;;;1.65;100.00;99485.81;4976795;28;20034;-76
2023/02/24 08:35:24;;;;;;;5.55;2.08;;;;;;;1.71;100.00;99491.50;4983666;28;20042;-76
2023/02/24 08:37:54;;;;;;;6.63;1.75;;;;;;;1.76;100.00;99476.16;4983171;28;20030;-76
2023/02/24 08:43:16;;;;;;;4.63;1.65;;;;;;;1.78;100.00;99464.53;4985601;28;20492;-76
2023/02/24 08:45:55;;;;;;;3.85;1.92;;;;;;;1.96;100.00;99463.81;4964914;28;20034;-77
2023/02/24 08:48:36;;;;;;;3.08;1.63;;;;;;;1.82;100.00;99454.53;4968162;28;20039;-76
2023/02/24 08:51:29;;;;;;;3.65;1.65;;;;;;;1.81;100.00;99447.63;4984321;28;20026;-76
2023/02/24 08:53:58;;;;;;;3.22;1.75;;;;;;;1.76;100.00;99436.69;4913003;29;20047;-76
2023/02/24 08:56:27;;;;;;;4.72;1.90;;;;;;;1.80;100.00;99432.78;4921021;29;20870;-76
2023/02/24 08:58:55;;;;;;;6.03;1.80;;;;;;;1.74;100.00;99428.91;4913886;29;20048;-76
2023/02/24 09:01:26;;;;;;;2.15;1.17;;;;;;;1.77;100.00;99433.06;4925227;29;20054;-76
2023/02/24 09:03:57;;;;;;;5.47;2.08;;;;;;;1.71;100.00;99434.47;4916057;29;20063;-76
2023/02/24 09:06:57;;;;;;;5.13;1.42;;;;;;;1.71;100.00;99434.47;4925324;29;20118;-76
2023/02/24 09:09:23;;;;;;;5.60;2.00;;;;;;;1.75;100.00;99419.22;4890491;29;20044;-76
2023/02/24 09:11:58;;;;;;;;;;;;;;;1.67;100.00;99419.91;4906557;29;20044;-76
2023/02/24 09:14:37;;;;;;;4.05;1.73;;;;;;;1.68;100.00;99424.19;4902376;29;20317;-76
2023/02/24 09:17:09;;;;;;;4.15;1.80;;;;;;;1.74;100.00;99428.91;4907040;29;20056;-77
2023/02/24 09:22:39;;;;;;;2.38;1.40;;;;;;;1.75;100.00;99408.69;4906477;29;20040;-76
2023/02/24 09:25:17;;;;;;;4.28;1.83;;;;;;;1.73;100.00;99408.81;4891926;29;20105;-77
2023/02/24 09:28:16;;;;;;;3.42;2.20;;;;;;;1.90;100.00;99408.13;4891067;29;20646;-76
2023/02/24 09:30:54;;;;;;;2.75;1.88;;;;;;;1.93;100.00;99407.03;4844585;29;20055;-75
2023/02/24 09:33:37;;;;;;;4.78;2.28;;;;;;;1.88;100.00;99385.56;4868656;29;20049;-76
2023/02/24 09:36:43;;;;;;;2.78;1.75;;;;;;;1.84;100.00;99384.19;4868681;29;20474;-75
2023/02/24 09:41:52;;;;;;;5.47;3.30;;;;;;;1.95;100.00;99381.41;4869246;29;20419;-76
2023/02/24 09:44:43;;;;;;;2.53;1.70;;;;;;;2.07;100.00;99377.63;4884639;29;20319;-78
2023/02/24 09:47:38;;;;;;;4.10;1.60;;;;;;;2.15;100.00;99376.09;4927566;29;20075;-74
2023/02/24 09:50:18;;;;;;;2.45;1.77;;;;;;;2.38;100.00;99380.06;4914904;29;20039;-75
2023/02/24 09:52:46;;;;;;;5.20;2.15;;;;;;;2.35;100.00;99364.53;4928869;29;20044;-75
2023/02/24 09:55:34;;;;;;;3.42;1.67;;;;;;;2.55;100.00;99360.00;4935090;29;20054;-78
2023/02/24 09:58:22;;;;;;;5.05;1.77;;;;;;;2.38;100.00;99339.72;4928946;29;20047;-77
2023/02/24 10:01:21;;;;;;;2.85;1.80;;;;;;;2.56;100.00;99345.06;4928940;29;20051;-78
2023/02/24 10:04:04;;;;;;;4.22;2.17;;;;;;;2.47;100.00;99330.94;4928887;29;20078;-76
2023/02/24 10:06:56;;;;;;;2.25;1.45;;;;;;;2.47;100.00;99315.97;4940801;28;20555;-75
2023/02/24 10:09:33;;;;;;;4.90;1.80;;;;;;;2.55;100.00;99317.88;4970740;28;20038;-77
2023/02/24 10:12:05;;;;;;;5.38;2.00;;;;;;;2.68;100.00;99320.16;4986606;28;20097;-78
2023/02/24 10:14:52;;;;;;;3.80;2.08;;;;;;;2.78;100.00;99312.22;4986688;28;20069;-77
2023/02/24 10:17:21;;;;;;;3.88;2.05;;;;;;;2.70;100.00;99310.31;4986702;28;20030;-76
2023/02/24 10:19:55;;;;;;;4.80;1.75;;;;;;;2.81;100.00;99304.84;4972327;28;20033;-77
2023/02/24 10:22:39;;;;;;;6.35;2.40;;;;;;;2.84;100.00;99296.63;4986907;28;20053;-77
2023/02/24 10:25:22;;;;;;;5.97;2.70;;;;;;;2.98;100.00;99299.75;4985770;28;20050;-77
2023/02/24 10:27:57;;;;;;;6.95;1.85;;;;;;;3.00;100.00;99300.41;4968629;28;20045;-78
2023/02/24 10:30:39;;;;;;;3.63;1.93;;;;;;;3.33;100.00;99298.94;4970353;28;20137;-76
2023/02/24 10:33:16;;;;;;;7.30;1.95;;;;;;;3.30;100.00;99276.31;4987249;28;20042;-76
2023/02/24 10:35:42;;;;;;;6.30;2.45;;;;;;;3.27;100.00;99271.34;4975826;28;20395;-77
2023/02/24 10:38:08;;;;;;;6.72;3.50;;;;;;;3.43;100.00;99264.56;4988539;28;20276;-76
2023/02/24 10:40:55;;;;;;;6.70;1.98;;;;;;;3.53;100.00;99266.09;4969555;28;20038;-78
2023/02/24 10:43:29;;;;;;;3.95;2.15;;;;;;;3.37;100.00;99247.50;4985798;28;20578;-76
2023/02/24 10:46:15;;;;;;;8.20;3.72;;;;;;;3.37;100.00;99240.44;4983600;28;20042;-76
2023/02/24 10:48:48;;;;;;;8.27;3.00;;;;;;;3.35;100.00;99237.13;4978604;28;20157;-76
2023/02/24 10:51:20;;;;;;;10.93;3.70;;;;;;;3.37;100.00;99229.88;4982774;28;20046;-76
2023/02/24 10:54:08;;;;;;;8.88;3.58;;;;;;;3.65;100.00;99250.84;4976742;28;20504;-77
2023/02/24 10:56:43;;;;;;;11.05;4.38;;;;;;;3.89;100.00;99247.56;4966320;28;20038;-77
2023/02/24 11:02:23;;;;;;;10.90;4.13;;;;;;;3.80;100.00;99230.81;4982998;28;20093;-76
2023/02/24 11:05:03;;;;;;;11.15;4.18;;;;;;;3.87;100.00;99222.28;4989208;28;20042;-78
2023/02/24 11:07:42;;;;;;;19.73;5.47;;;;;;;3.79;100.00;99223.91;4983219;28;20044;-77
2023/02/24 11:10:24;;;;;;;14.27;4.22;;;;;;;3.92;100.00;99227.94;4985119;28;20456;-77
2023/02/24 11:18:29;;;;;;;15.85;5.00;;;;;;;3.83;100.00;99221.75;4982871;28;20034;-77
2023/02/24 11:21:01;;;;;;;15.85;5.90;;;;;;;3.87;100.00;99227.56;4966927;28;20026;-76
2023/02/24 11:23:33;;;;;;;17.38;5.10;;;;;;;3.91;100.00;99224.47;4949149;28;20076;-78
2023/02/24 11:26:03;;;;;;;15.02;5.35;;;;;;;3.97;100.00;99223.00;4970219;28;20049;-77
2023/02/24 11:29:06;;;;;;;13.32;5.85;;;;;;;4.01;100.00;99227.81;4987122;28;20041;-77
2023/02/24 11:31:46;;;;;;;28.70;6.95;;;;;;;3.92;100.00;99204.16;4981013;28;20034;-77
2023/02/24 11:34:27;;;;;;;12.73;5.00;;;;;;;4.08;100.00;99209.53;4987273;28;20042;-77
2023/02/24 11:37:13;;;;;;;10.57;4.57;;;;;;;4.23;100.00;99193.88;4982653;28;20049;-76
2023/02/24 11:39:57;;;;;;;18.92;4.32;;;;;;;4.44;100.00;99198.75;4981462;28;20104;-77
2023/02/24 11:42:42;;;;;;;15.05;4.32;;;;;;;4.43;100.00;99189.19;4984419;28;20053;-76
2023/02/24 11:45:38;;;;;;;12.43;3.75;;;;;;;4.43;100.00;99173.31;4984673;28;20108;-76
2023/02/24 11:48:13;;;;;;;12.10;3.47;;;;;;;4.49;100.00;99167.38;4983446;28;20050;-77
2023/02/24 11:50:49;;;;;;;17.00;4.63;;;;;;;4.45;100.00;99155.50;4983290;28;20044;-77
2023/02/24 11:53:22;;;;;;;10.13;3.55;;;;;;;4.54;100.00;99135.16;4983653;28;20041;-76
2023/02/24 11:55:57;;;;;;;11.95;4.28;;;;;;;5.27;100.00;99155.53;4982091;28;20038;-77
2023/02/24 11:58:29;;;;;;;18.42;3.67;;;;;;;6.67;100.00;99185.84;4985136;28;20030;-77
2023/02/24 12:01:01;;;;;;;13.15;4.00;;;;;;;7.52;100.00;99154.81;4970135;28;20392;-75
2023/02/24 12:03:36;;;;;;;11.23;3.33;;;;;;;8.41;100.00;99114.91;4980887;28;20035;-76
2023/02/24 12:06:14;;;;;;;17.67;4.38;;;;;;;8.06;100.00;99002.22;4987350;28;20034;-76
2023/02/24 12:08:43;;;;;;;12.65;3.72;;;;;;;7.77;100.00;98948.13;4985141;28;20138;-76
2023/02/24 12:11:22;;;;;;;23.75;4.03;;;;;;;7.36;100.00;98892.97;4980457;28;20077;-77
2023/02/24 12:14:11;;;;;;;12.15;3.83;;;;;;;6.75;100.00;98859.56;4982076;28;20096;-75
2023/02/24 12:16:44;;;;;;;11.02;4.38;;;;;;;6.04;100.00;98840.59;4984504;28;20050;-75
2023/02/24 12:19:21;;;;;;;19.17;4.70;;;;;;;5.98;100.00;98888.16;4981520;28;20483;-75
2023/02/24 12:21:52;;;;;;;15.32;5.65;;;;;;;6.19;100.00;98928.06;4971119;28;20069;-76
2023/02/24 12:24:20;;;;;;;19.60;6.97;;;;;;;6.22;100.00;98948.06;4984247;28;20430;-75
2023/02/24 12:27:17;;;;;;;20.08;4.85;;;;;;;6.37;100.00;98958.72;4967792;28;20030;-77